createdAt,value
2022-10-02T00:00:00.668Z,48.45
2022-10-02T00:00:35.248Z,48.46
2022-10-02T00:01:15.960Z,48.55
2022-10-02T00:01:50.946Z,48.29
2022-10-02T00:02:29.101Z,48.38
2022-10-02T00:03:06.463Z,48.36
2022-10-02T00:03:39.691Z,48.51
2022-10-02T00:04:17.782Z,48.42
2022-10-02T00:04:54.260Z,48.55
2022-10-02T00:05:33.488Z,48.46
2022-10-02T00:06:08.420Z,48.24
2022-10-02T00:06:47.713Z,48.05
2022-10-02T00:07:24.201Z,48.56
2022-10-02T00:07:59.681Z,48.54
2022-10-02T00:08:34.854Z,48.38
2022-10-02T00:09:11.339Z,48.11
2022-10-02T00:09:47.744Z,48.07
2022-10-02T00:10:23.423Z,48.28
2022-10-02T00:11:00.101Z,48.47
2022-10-02T00:11:44.152Z,48.43
2022-10-02T00:12:22.943Z,48.31
2022-10-02T00:12:58.190Z,48.46
2022-10-02T00:13:35.472Z,48.60
2022-10-02T00:14:12.523Z,48.50
2022-10-02T00:14:46.327Z,48.50
2022-10-02T00:15:21.312Z,48.16
2022-10-02T00:15:56.604Z,48.62
2022-10-02T00:16:33.297Z,48.26
2022-10-02T00:17:07.097Z,48.24
2022-10-02T00:17:45.580Z,48.32
2022-10-02T00:18:20.814Z,48.52
2022-10-02T00:18:54.900Z,48.59
2022-10-02T00:19:30.164Z,48.60
2022-10-02T00:20:02.351Z,48.34
2022-10-02T00:20:39.439Z,48.33
2022-10-02T00:21:22.604Z,48.27
2022-10-02T00:22:18.169Z,48.67
2022-10-02T00:22:53.664Z,48.61
2022-10-02T00:23:30.656Z,48.32
2022-10-02T00:24:06.923Z,48.66
2022-10-02T00:24:42.688Z,48.42
2022-10-02T00:25:26.169Z,48.52
2022-10-02T00:26:03.781Z,48.35
2022-10-02T00:26:39.696Z,48.67
2022-10-02T00:27:32.703Z,48.48
2022-10-02T00:28:14.881Z,48.53
2022-10-02T00:28:56.739Z,48.27
2022-10-02T00:29:36.247Z,48.54
2022-10-02T00:30:10.979Z,48.40
2022-10-02T00:30:58.014Z,48.41
2022-10-02T00:31:34.913Z,48.74
2022-10-02T00:32:20.067Z,48.33
2022-10-02T00:33:00.684Z,48.53
2022-10-02T00:33:43.804Z,48.71
2022-10-02T00:34:23.321Z,48.59
2022-10-02T00:35:32.252Z,48.54
2022-10-02T00:36:15.913Z,48.75
2022-10-02T00:36:57.660Z,48.71
2022-10-02T00:37:37.668Z,48.50
2022-10-02T00:38:22.115Z,48.49
2022-10-02T00:39:02.340Z,48.75
2022-10-02T00:39:43.061Z,48.27
2022-10-02T00:40:38.815Z,48.74
2022-10-02T00:41:37.256Z,48.72
2022-10-02T00:42:44.944Z,48.71
2022-10-02T00:43:25.019Z,48.47
2022-10-02T00:44:09.276Z,48.33
2022-10-02T00:44:55.213Z,48.34
2022-10-02T00:45:59.974Z,48.24
2022-10-02T00:46:44.532Z,48.72
2022-10-02T00:47:23.486Z,48.41
2022-10-02T00:47:59.349Z,48.43
2022-10-02T00:48:51.424Z,48.27
2022-10-02T00:49:39.800Z,48.74
2022-10-02T00:50:24.673Z,48.59
2022-10-02T00:51:03.984Z,48.38
2022-10-02T00:51:51.224Z,48.59
2022-10-02T00:52:41.607Z,48.27
2022-10-02T00:53:22.815Z,48.30
2022-10-02T00:54:03.956Z,48.48
2022-10-02T00:55:26.061Z,48.67
2022-10-02T00:56:09.412Z,48.26
2022-10-02T00:56:49.791Z,48.64
2022-10-02T00:57:28.796Z,48.41
2022-10-02T00:58:12.087Z,48.60
2022-10-02T00:58:57.180Z,48.67
2022-10-02T00:59:41.896Z,48.64
2022-10-02T01:00:15.225Z,48.66
2022-10-02T01:00:54.117Z,48.57
2022-10-02T01:01:31.143Z,48.26
2022-10-02T01:02:08.230Z,48.35
2022-10-02T01:03:10.029Z,48.62
2022-10-02T01:03:44.332Z,48.31
2022-10-02T01:04:21.298Z,48.30
2022-10-02T01:04:56.404Z,48.36
2022-10-02T01:05:28.916Z,48.08
2022-10-02T01:06:01.141Z,48.12
2022-10-02T01:06:36.179Z,48.48
2022-10-02T01:07:11.224Z,48.46
2022-10-02T01:07:48.471Z,48.31
2022-10-02T01:08:23.257Z,48.57
2022-10-02T01:08:56.075Z,48.26
2022-10-02T01:09:28.362Z,48.57
2022-10-02T01:10:03.152Z,48.07
2022-10-02T01:10:38.240Z,48.10
2022-10-02T01:11:10.484Z,48.37
2022-10-02T01:11:45.327Z,48.05
2022-10-02T01:12:17.589Z,48.31
2022-10-02T01:12:50.077Z,48.43
2022-10-02T01:13:24.915Z,48.07
2022-10-02T01:13:57.158Z,48.51
2022-10-02T01:14:33.791Z,48.28
2022-10-02T01:15:14.757Z,48.16
2022-10-02T01:15:53.121Z,48.13
2022-10-02T01:16:25.512Z,48.21
2022-10-02T01:17:00.539Z,48.00
2022-10-02T01:17:34.048Z,48.03
2022-10-02T01:18:07.264Z,48.11
2022-10-02T01:18:42.171Z,48.27
2022-10-02T01:19:22.603Z,48.12
2022-10-02T01:19:55.248Z,48.41
2022-10-02T01:20:32.481Z,48.04
2022-10-02T01:21:11.816Z,48.43
2022-10-02T01:21:49.301Z,48.28
2022-10-02T01:22:27.102Z,48.21
2022-10-02T01:23:10.273Z,47.97
2022-10-02T01:23:47.337Z,48.23
2022-10-02T01:24:24.263Z,48.48
2022-10-02T01:25:04.317Z,48.48
2022-10-02T01:25:36.607Z,48.08
2022-10-02T01:26:08.853Z,48.32
2022-10-02T01:26:43.621Z,48.02
2022-10-02T01:27:15.923Z,48.15
2022-10-02T01:27:48.435Z,48.40
2022-10-02T01:28:24.051Z,48.36
2022-10-02T01:28:56.303Z,48.03
2022-10-02T01:29:29.189Z,48.49
2022-10-02T01:30:03.557Z,48.35
2022-10-02T01:30:39.338Z,48.38
2022-10-02T01:31:13.556Z,48.38
2022-10-02T01:31:45.806Z,48.37
2022-10-02T01:32:20.905Z,48.20
2022-10-02T01:32:55.748Z,48.31
2022-10-02T01:33:27.962Z,48.48
2022-10-02T01:34:02.961Z,48.30
2022-10-02T01:34:35.581Z,48.55
2022-10-02T01:35:08.963Z,48.18
2022-10-02T01:35:43.784Z,48.02
2022-10-02T01:36:17.123Z,48.04
2022-10-02T01:36:49.440Z,48.44
2022-10-02T01:37:25.114Z,48.33
2022-10-02T01:37:58.065Z,48.33
2022-10-02T01:38:31.449Z,48.46
2022-10-02T01:39:06.869Z,48.24
2022-10-02T01:39:39.077Z,48.13
2022-10-02T01:40:24.145Z,48.19
2022-10-02T01:40:58.912Z,48.24
2022-10-02T01:41:40.569Z,48.33
2022-10-02T01:42:12.749Z,48.12
2022-10-02T01:42:44.932Z,48.42
2022-10-02T01:43:22.186Z,48.33
2022-10-02T01:43:56.585Z,48.43
2022-10-02T01:44:28.877Z,47.96
2022-10-02T01:45:04.078Z,47.97
2022-10-02T01:45:45.313Z,48.37
2022-10-02T01:46:34.312Z,48.00
2022-10-02T01:47:10.680Z,48.33
2022-10-02T01:47:46.019Z,47.98
2022-10-02T01:48:27.439Z,48.16
2022-10-02T01:49:10.560Z,48.34
2022-10-02T01:49:58.309Z,47.97
2022-10-02T01:50:35.107Z,48.31
2022-10-02T01:51:29.291Z,48.14
2022-10-02T01:52:33.252Z,48.45
2022-10-02T01:53:12.265Z,47.96
2022-10-02T01:53:47.509Z,48.22
2022-10-02T01:54:30.183Z,47.98
2022-10-02T01:55:21.692Z,48.07
2022-10-02T01:56:03.623Z,48.00
2022-10-02T01:56:42.502Z,48.12
2022-10-02T01:57:24.700Z,48.12
2022-10-02T01:58:11.000Z,48.39
2022-10-02T01:58:50.206Z,48.39
2022-10-02T01:59:29.914Z,48.45
2022-10-02T02:00:10.151Z,48.40
2022-10-02T02:00:52.681Z,48.26
2022-10-02T02:01:36.764Z,48.36
2022-10-02T02:02:13.740Z,48.45
2022-10-02T02:02:52.729Z,48.00
2022-10-02T02:03:36.290Z,48.09
2022-10-02T02:04:16.628Z,48.32
2022-10-02T02:04:55.187Z,48.21
2022-10-02T02:05:38.368Z,48.31
2022-10-02T02:06:15.211Z,48.40
2022-10-02T02:06:52.496Z,48.22
2022-10-02T02:07:35.560Z,47.94
2022-10-02T02:08:10.336Z,48.14
2022-10-02T02:08:48.540Z,47.94
2022-10-02T02:09:28.249Z,48.02
2022-10-02T02:10:07.582Z,48.40
2022-10-02T02:10:50.828Z,48.39
2022-10-02T02:11:23.484Z,47.96
2022-10-02T02:11:59.824Z,48.39
2022-10-02T02:12:41.794Z,48.23
2022-10-02T02:13:17.353Z,48.31
2022-10-02T02:13:54.991Z,48.33
2022-10-02T02:14:30.708Z,48.14
2022-10-02T02:15:06.768Z,47.92
2022-10-02T02:15:45.496Z,47.93
2022-10-02T02:16:22.718Z,48.28
2022-10-02T02:16:58.522Z,48.15
2022-10-02T02:17:35.485Z,47.98
2022-10-02T02:18:12.932Z,48.32
2022-10-02T02:18:50.807Z,48.16
2022-10-02T02:19:29.144Z,48.29
2022-10-02T02:20:04.325Z,48.31
2022-10-02T02:20:40.452Z,48.02
2022-10-02T02:21:21.944Z,48.33
2022-10-02T02:21:57.023Z,48.50
2022-10-02T02:22:33.284Z,48.28
2022-10-02T02:23:08.550Z,48.33
2022-10-02T02:23:41.895Z,48.51
2022-10-02T02:24:20.520Z,48.26
2022-10-02T02:24:57.005Z,48.24
2022-10-02T02:25:30.772Z,48.31
2022-10-02T02:26:12.539Z,48.17
2022-10-02T02:26:45.600Z,48.19
2022-10-02T02:27:21.472Z,48.14
2022-10-02T02:27:59.636Z,48.45
2022-10-02T02:28:32.931Z,48.17
2022-10-02T02:29:07.876Z,48.24
2022-10-02T02:29:44.232Z,48.09
2022-10-02T02:30:17.169Z,48.19
2022-10-02T02:30:51.550Z,48.35
2022-10-02T02:31:29.140Z,48.34
2022-10-02T02:32:04.112Z,48.64
2022-10-02T02:32:39.389Z,48.47
2022-10-02T02:33:16.037Z,48.41
2022-10-02T02:33:51.081Z,48.00
2022-10-02T02:34:26.865Z,48.02
2022-10-02T02:35:04.666Z,47.92
2022-10-02T02:35:41.112Z,47.63
2022-10-02T02:36:17.242Z,47.35
2022-10-02T02:36:55.428Z,47.44
2022-10-02T02:37:29.947Z,47.47
2022-10-02T02:38:05.389Z,47.39
2022-10-02T02:38:43.158Z,47.05
2022-10-02T02:39:17.429Z,47.30
2022-10-02T02:39:53.169Z,46.94
2022-10-02T02:40:29.908Z,47.06
2022-10-02T02:41:08.028Z,46.72
2022-10-02T02:41:42.600Z,46.76
2022-10-02T02:42:20.855Z,46.83
2022-10-02T02:43:00.264Z,47.15
2022-10-02T02:43:33.971Z,47.19
2022-10-02T02:44:11.928Z,47.07
2022-10-02T02:44:47.834Z,46.92
2022-10-02T02:45:22.712Z,47.11
2022-10-02T02:45:59.476Z,46.92
2022-10-02T02:46:35.017Z,46.74
2022-10-02T02:47:11.376Z,46.66
2022-10-02T02:47:50.817Z,46.55
2022-10-02T02:48:26.007Z,46.71
2022-10-02T02:49:03.969Z,46.55
2022-10-02T02:49:49.865Z,46.73
2022-10-02T02:50:23.576Z,46.95
2022-10-02T02:51:00.477Z,46.67
2022-10-02T02:51:34.584Z,46.67
2022-10-02T02:52:09.963Z,46.93
2022-10-02T02:52:48.232Z,46.69
2022-10-02T02:53:23.209Z,46.53
2022-10-02T02:53:59.211Z,46.80
2022-10-02T02:54:39.634Z,46.78
2022-10-02T02:55:15.320Z,46.46
2022-10-02T02:55:49.036Z,46.87
2022-10-02T02:56:27.316Z,46.55
2022-10-02T02:57:01.530Z,46.69
2022-10-02T02:57:38.289Z,46.43
2022-10-02T02:58:15.680Z,46.75
2022-10-02T02:58:49.789Z,46.36
2022-10-02T02:59:22.705Z,46.58
2022-10-02T02:59:58.921Z,46.51
2022-10-02T03:00:31.333Z,46.55
2022-10-02T03:01:03.986Z,46.67
2022-10-02T03:01:38.975Z,46.65
2022-10-02T03:02:11.182Z,46.87
2022-10-02T03:02:43.472Z,46.73
2022-10-02T03:03:18.253Z,46.34
2022-10-02T03:03:50.442Z,46.54
2022-10-02T03:04:22.667Z,46.76
2022-10-02T03:04:57.442Z,46.65
2022-10-02T03:05:30.064Z,46.82
2022-10-02T03:06:05.126Z,46.32
2022-10-02T03:06:41.605Z,46.75
2022-10-02T03:07:15.839Z,46.37
2022-10-02T03:07:52.455Z,46.66
2022-10-02T03:08:29.984Z,46.78
2022-10-02T03:09:02.635Z,46.72
2022-10-02T03:09:34.872Z,46.41
2022-10-02T03:10:11.700Z,46.60
2022-10-02T03:10:54.674Z,46.75
2022-10-02T03:11:40.724Z,46.31
2022-10-02T03:12:16.580Z,46.50
2022-10-02T03:13:00.236Z,46.76
2022-10-02T03:13:44.538Z,46.77
2022-10-02T03:14:38.608Z,46.50
2022-10-02T03:15:27.011Z,46.73
2022-10-02T03:16:11.895Z,46.42
2022-10-02T03:16:54.001Z,46.72
2022-10-02T03:17:36.424Z,46.34
2022-10-02T03:18:23.368Z,46.79
2022-10-02T03:19:07.796Z,46.73
2022-10-02T03:19:46.011Z,46.33
2022-10-02T03:20:27.176Z,46.51
2022-10-02T03:21:06.803Z,46.46
2022-10-02T03:21:42.223Z,46.70
2022-10-02T03:22:25.217Z,46.79
2022-10-02T03:23:03.922Z,46.48
2022-10-02T03:23:45.533Z,46.77
2022-10-02T03:24:24.132Z,46.70
2022-10-02T03:25:00.175Z,46.85
2022-10-02T03:25:38.485Z,46.78
2022-10-02T03:26:16.635Z,46.35
2022-10-02T03:26:55.332Z,46.74
2022-10-02T03:27:35.090Z,46.38
2022-10-02T03:28:13.179Z,46.36
2022-10-02T03:28:56.087Z,46.50
2022-10-02T03:29:32.474Z,46.65
2022-10-02T03:30:09.739Z,46.58
2022-10-02T03:30:42.666Z,46.41
2022-10-02T03:31:15.630Z,46.67
2022-10-02T03:31:51.362Z,46.40
2022-10-02T03:32:24.792Z,46.79
2022-10-02T03:33:01.051Z,46.82
2022-10-02T03:33:38.923Z,46.31
2022-10-02T03:34:11.477Z,46.38
2022-10-02T03:34:43.912Z,46.33
2022-10-02T03:35:20.065Z,46.72
2022-10-02T03:35:52.413Z,46.54
2022-10-02T03:36:27.644Z,46.53
2022-10-02T03:37:00.364Z,46.53
2022-10-02T03:37:35.721Z,46.40
2022-10-02T03:38:11.166Z,46.53
2022-10-02T03:38:44.114Z,46.67
2022-10-02T03:39:26.453Z,46.75
2022-10-02T03:39:58.991Z,46.55
2022-10-02T03:40:31.236Z,46.46
2022-10-02T03:41:06.028Z,46.58
2022-10-02T03:41:38.243Z,46.79
2022-10-02T03:42:14.917Z,46.36
2022-10-02T03:42:49.712Z,46.50
2022-10-02T03:43:23.236Z,46.65
2022-10-02T03:43:55.628Z,47.75
2022-10-02T03:44:30.401Z,48.29
2022-10-02T03:45:02.597Z,47.32
2022-10-02T03:45:51.692Z,47.27
2022-10-02T03:46:26.804Z,47.02
2022-10-02T03:46:59.023Z,46.65
2022-10-02T03:47:31.240Z,46.69
2022-10-02T03:48:06.015Z,46.10
2022-10-02T03:48:38.206Z,46.32
2022-10-02T03:49:10.380Z,45.94
2022-10-02T03:49:46.456Z,46.09
2022-10-02T03:50:19.135Z,45.61
2022-10-02T03:50:51.391Z,45.33
2022-10-02T03:51:26.495Z,45.64
2022-10-02T03:51:58.709Z,45.55
2022-10-02T03:52:32.103Z,45.16
2022-10-02T03:53:14.077Z,45.01
2022-10-02T03:53:46.287Z,44.96
2022-10-02T03:54:21.069Z,44.84
2022-10-02T03:54:59.392Z,44.51
2022-10-02T03:55:34.680Z,44.96
2022-10-02T03:56:09.933Z,44.49
2022-10-02T03:56:49.639Z,44.72
2022-10-02T03:57:26.111Z,44.44
2022-10-02T03:57:58.856Z,44.38
2022-10-02T03:58:33.864Z,44.36
2022-10-02T03:59:12.720Z,44.46
2022-10-02T03:59:49.173Z,44.56
2022-10-02T04:00:26.816Z,44.75
2022-10-02T04:01:03.531Z,43.84
2022-10-02T04:01:45.514Z,43.64
2022-10-02T04:02:26.384Z,43.77
2022-10-02T04:03:03.134Z,43.67
2022-10-02T04:03:37.232Z,43.94
2022-10-02T04:04:17.819Z,44.53
2022-10-02T04:04:53.643Z,44.58
2022-10-02T04:05:30.701Z,44.83
2022-10-02T04:06:05.575Z,44.79
2022-10-02T04:06:42.872Z,44.78
2022-10-02T04:07:23.041Z,45.31
2022-10-02T04:07:56.937Z,45.16
2022-10-02T04:08:31.754Z,45.13
2022-10-02T04:09:09.573Z,45.40
2022-10-02T04:09:44.698Z,45.32
2022-10-02T04:10:29.629Z,45.47
2022-10-02T04:11:09.655Z,45.45
2022-10-02T04:11:44.244Z,45.59
2022-10-02T04:12:19.367Z,45.68
2022-10-02T04:13:00.731Z,45.92
2022-10-02T04:13:38.248Z,46.15
2022-10-02T04:14:14.231Z,46.00
2022-10-02T04:14:53.350Z,45.99
2022-10-02T04:15:28.531Z,46.25
2022-10-02T04:16:06.308Z,45.91
2022-10-02T04:16:44.904Z,46.00
2022-10-02T04:17:20.699Z,46.40
2022-10-02T04:17:59.049Z,46.00
2022-10-02T04:18:38.749Z,46.07
2022-10-02T04:19:17.264Z,46.06
2022-10-02T04:19:51.814Z,46.09
2022-10-02T04:20:31.675Z,46.50
2022-10-02T04:21:07.861Z,46.13
2022-10-02T04:21:46.224Z,46.19
2022-10-02T04:22:25.469Z,46.14
2022-10-02T04:23:01.872Z,46.60
2022-10-02T04:23:39.947Z,46.09
2022-10-02T04:24:18.108Z,46.36
2022-10-02T04:24:53.241Z,46.53
2022-10-02T04:25:30.469Z,46.51
2022-10-02T04:26:07.520Z,46.31
2022-10-02T04:26:43.968Z,46.37
2022-10-02T04:27:22.876Z,46.48
2022-10-02T04:28:01.181Z,46.54
2022-10-02T04:28:40.921Z,46.37
2022-10-02T04:29:18.738Z,46.51
2022-10-02T04:29:56.444Z,46.48
2022-10-02T04:30:30.213Z,46.63
2022-10-02T04:31:02.920Z,46.63
2022-10-02T04:31:37.836Z,46.15
2022-10-02T04:32:13.740Z,46.54
2022-10-02T04:32:46.216Z,46.63
2022-10-02T04:33:22.627Z,46.19
2022-10-02T04:33:55.510Z,46.14
2022-10-02T04:34:28.327Z,46.33
2022-10-02T04:35:03.300Z,46.42
2022-10-02T04:35:38.277Z,46.60
2022-10-02T04:36:22.661Z,46.17
2022-10-02T04:37:10.028Z,46.25
2022-10-02T04:38:15.679Z,46.73
2022-10-02T04:39:20.001Z,46.38
2022-10-02T04:40:00.948Z,46.45
2022-10-02T04:40:50.404Z,46.37
2022-10-02T04:41:39.003Z,46.41
2022-10-02T04:42:30.704Z,46.22
2022-10-02T04:43:15.349Z,46.68
2022-10-02T04:43:58.983Z,46.47
2022-10-02T04:44:50.288Z,46.70
2022-10-02T04:45:33.132Z,46.52
2022-10-02T04:46:15.255Z,46.48
2022-10-02T04:47:01.316Z,46.55
2022-10-02T04:47:52.658Z,46.33
2022-10-02T04:48:54.448Z,46.77
2022-10-02T04:49:59.864Z,46.71
2022-10-02T04:50:44.801Z,46.70
2022-10-02T04:51:39.284Z,46.33
2022-10-02T04:52:25.211Z,46.50
2022-10-02T04:53:12.329Z,46.72
2022-10-02T04:53:58.279Z,46.55
2022-10-02T04:54:49.737Z,46.73
2022-10-02T04:55:38.748Z,46.57
2022-10-02T04:56:35.613Z,46.60
2022-10-02T04:57:31.740Z,46.77
2022-10-02T04:58:23.413Z,46.42
2022-10-02T04:59:04.265Z,46.60
2022-10-02T04:59:47.840Z,46.60
2022-10-02T05:00:23.961Z,46.68
2022-10-02T05:01:02.179Z,46.44
2022-10-02T05:01:48.171Z,46.10
2022-10-02T05:02:33.715Z,46.77
2022-10-02T05:03:25.428Z,46.50
2022-10-02T05:04:19.006Z,47.13
2022-10-02T05:05:15.353Z,46.85
2022-10-02T05:06:11.833Z,47.15
2022-10-02T05:06:57.762Z,47.32
2022-10-02T05:07:37.957Z,47.35
2022-10-02T05:08:32.272Z,47.49
2022-10-02T05:09:10.869Z,47.49
2022-10-02T05:09:48.633Z,47.42
2022-10-02T05:10:39.167Z,47.56
2022-10-02T05:11:29.192Z,47.44
2022-10-02T05:12:29.980Z,47.63
2022-10-02T05:13:13.048Z,47.71
2022-10-02T05:13:58.599Z,47.95
2022-10-02T05:14:45.117Z,47.82
2022-10-02T05:15:27.331Z,48.11
2022-10-02T05:16:13.201Z,47.84
2022-10-02T05:17:00.165Z,47.78
2022-10-02T05:17:48.061Z,47.95
2022-10-02T05:18:44.507Z,47.90
2022-10-02T05:19:41.306Z,47.93
2022-10-02T05:20:31.893Z,47.85
2022-10-02T05:21:17.836Z,48.00
2022-10-02T05:22:07.660Z,47.76
2022-10-02T05:23:06.808Z,48.13
2022-10-02T05:23:54.872Z,48.22
2022-10-02T05:24:39.855Z,47.92
2022-10-02T05:25:25.225Z,48.06
2022-10-02T05:26:23.558Z,47.85
2022-10-02T05:27:05.685Z,48.36
2022-10-02T05:27:53.480Z,48.02
2022-10-02T05:28:45.119Z,48.13
2022-10-02T05:29:34.548Z,48.24
2022-10-02T05:30:09.139Z,47.92
2022-10-02T05:30:47.136Z,48.02
2022-10-02T05:31:31.525Z,48.36
2022-10-02T05:32:17.215Z,47.97
2022-10-02T05:33:11.552Z,48.12
2022-10-02T05:33:50.179Z,47.94
2022-10-02T05:34:33.619Z,48.38
2022-10-02T05:35:20.430Z,48.31
2022-10-02T05:36:17.218Z,48.12
2022-10-02T05:37:20.219Z,48.40
2022-10-02T05:38:01.030Z,48.40
2022-10-02T05:38:48.719Z,48.28
2022-10-02T05:39:27.256Z,48.17
2022-10-02T05:40:03.050Z,48.21
2022-10-02T05:40:40.495Z,48.26
2022-10-02T05:41:18.011Z,48.50
2022-10-02T05:41:55.835Z,48.15
2022-10-02T05:42:39.022Z,48.15
2022-10-02T05:43:18.038Z,48.50
2022-10-02T05:43:59.032Z,48.09
2022-10-02T05:44:37.672Z,48.41
2022-10-02T05:45:25.950Z,48.36
2022-10-02T05:46:00.117Z,48.33
2022-10-02T05:46:39.678Z,48.48
2022-10-02T05:47:15.677Z,48.36
2022-10-02T05:47:51.291Z,48.49
2022-10-02T05:48:27.021Z,48.18
2022-10-02T05:49:00.979Z,48.07
2022-10-02T05:49:38.036Z,48.05
2022-10-02T05:50:16.005Z,48.54
2022-10-02T05:50:52.167Z,48.08
2022-10-02T05:51:36.939Z,48.20
2022-10-02T05:52:13.223Z,48.43
2022-10-02T05:52:51.176Z,48.04
2022-10-02T05:53:34.967Z,48.48
2022-10-02T05:54:15.084Z,48.05
2022-10-02T05:54:53.480Z,48.03
2022-10-02T05:55:30.704Z,48.50
2022-10-02T05:56:05.868Z,48.46
2022-10-02T05:56:42.893Z,48.15
2022-10-02T05:57:21.473Z,48.45
2022-10-02T05:58:00.222Z,48.19
2022-10-02T05:58:36.929Z,48.10
2022-10-02T05:59:18.572Z,48.39
2022-10-02T05:59:59.976Z,48.50
2022-10-02T06:00:37.950Z,48.36
2022-10-02T06:01:12.747Z,48.51
2022-10-02T06:01:49.695Z,48.17
2022-10-02T06:02:38.817Z,48.33
2022-10-02T06:03:19.689Z,48.31
2022-10-02T06:03:56.091Z,48.38
2022-10-02T06:04:34.144Z,48.07
2022-10-02T06:05:17.325Z,48.35
2022-10-02T06:05:55.579Z,48.11
2022-10-02T06:06:35.539Z,48.45
2022-10-02T06:07:09.880Z,48.30
2022-10-02T06:07:44.829Z,48.46
2022-10-02T06:08:25.337Z,48.03
2022-10-02T06:09:02.240Z,48.19
2022-10-02T06:09:37.193Z,48.43
2022-10-02T06:10:15.429Z,48.14
2022-10-02T06:10:50.296Z,48.41
2022-10-02T06:11:30.304Z,48.27
2022-10-02T06:12:05.284Z,48.09
2022-10-02T06:12:41.256Z,48.19
2022-10-02T06:13:20.763Z,48.25
2022-10-02T06:13:56.584Z,48.15
2022-10-02T06:14:34.069Z,48.27
2022-10-02T06:15:11.773Z,48.16
2022-10-02T06:15:48.436Z,48.08
2022-10-02T06:16:23.527Z,48.00
2022-10-02T06:17:02.249Z,48.15
2022-10-02T06:17:38.139Z,48.08
2022-10-02T06:18:14.391Z,48.04
2022-10-02T06:18:52.600Z,47.97
2022-10-02T06:19:28.865Z,48.38
2022-10-02T06:20:04.737Z,48.42
2022-10-02T06:20:43.640Z,47.97
2022-10-02T06:21:24.117Z,47.97
2022-10-02T06:22:02.256Z,47.97
2022-10-02T06:22:36.486Z,48.19
2022-10-02T06:23:12.148Z,48.05
2022-10-02T06:23:49.707Z,48.07
2022-10-02T06:24:27.101Z,48.36
2022-10-02T06:25:03.311Z,48.12
2022-10-02T06:25:41.320Z,48.04
2022-10-02T06:26:17.004Z,48.08
2022-10-02T06:26:55.418Z,48.10
2022-10-02T06:27:32.106Z,48.32
2022-10-02T06:28:11.428Z,48.09
2022-10-02T06:28:53.452Z,48.53
2022-10-02T06:29:32.025Z,48.41
2022-10-02T06:30:05.887Z,48.11
2022-10-02T06:30:45.457Z,48.14
2022-10-02T06:31:22.115Z,48.46
2022-10-02T06:32:02.168Z,48.54
2022-10-02T06:32:40.829Z,48.28
2022-10-02T06:33:16.921Z,48.26
2022-10-02T06:33:49.105Z,48.48
2022-10-02T06:34:24.003Z,48.57
2022-10-02T06:34:56.887Z,48.48
2022-10-02T06:35:37.156Z,48.32
2022-10-02T06:36:32.916Z,48.62
2022-10-02T06:37:23.514Z,48.59
2022-10-02T06:38:06.952Z,48.63
2022-10-02T06:39:03.648Z,48.59
2022-10-02T06:39:53.948Z,48.37
2022-10-02T06:40:45.883Z,48.43
2022-10-02T06:41:22.548Z,48.45
2022-10-02T06:42:10.782Z,48.61
2022-10-02T06:42:52.907Z,48.30
2022-10-02T06:43:36.209Z,48.38
2022-10-02T06:44:21.953Z,48.66
2022-10-02T06:45:04.483Z,48.25
2022-10-02T06:45:46.286Z,48.49
2022-10-02T06:46:28.292Z,48.36
2022-10-02T06:47:13.467Z,48.48
2022-10-02T06:48:02.012Z,48.41
2022-10-02T06:48:41.025Z,48.52
2022-10-02T06:49:23.017Z,48.42
2022-10-02T06:50:10.841Z,48.47
2022-10-02T06:50:49.389Z,48.81
2022-10-02T06:51:25.368Z,48.33
2022-10-02T06:52:04.284Z,48.35
2022-10-02T06:52:45.719Z,48.71
2022-10-02T06:53:30.424Z,48.66
2022-10-02T06:54:19.445Z,48.59
2022-10-02T06:55:05.442Z,48.75
2022-10-02T06:55:48.970Z,48.79
2022-10-02T06:56:33.580Z,48.84
2022-10-02T06:57:23.685Z,48.89
2022-10-02T06:58:03.832Z,48.88
2022-10-02T06:58:58.648Z,48.77
2022-10-02T06:59:41.260Z,48.92
2022-10-02T07:00:18.213Z,48.87
2022-10-02T07:00:56.915Z,48.50
2022-10-02T07:01:37.468Z,48.50
2022-10-02T07:02:21.488Z,48.59
2022-10-02T07:03:09.467Z,48.80
2022-10-02T07:03:55.492Z,48.86
2022-10-02T07:04:46.480Z,48.93
2022-10-02T07:05:36.805Z,48.90
2022-10-02T07:06:26.176Z,48.67
2022-10-02T07:07:06.211Z,48.61
2022-10-02T07:07:49.915Z,48.88
2022-10-02T07:08:32.976Z,49.02
2022-10-02T07:09:35.705Z,48.56
2022-10-02T07:10:18.515Z,48.84
2022-10-02T07:11:01.020Z,48.53
2022-10-02T07:11:43.204Z,48.89
2022-10-02T07:12:25.333Z,48.57
2022-10-02T07:13:15.866Z,48.69
2022-10-02T07:13:59.068Z,48.59
2022-10-02T07:14:43.362Z,49.03
2022-10-02T07:15:55.679Z,48.80
2022-10-02T07:16:41.324Z,48.69
2022-10-02T07:17:22.508Z,48.80
2022-10-02T07:18:04.251Z,48.85
2022-10-02T07:18:49.444Z,48.96
2022-10-02T07:19:42.147Z,48.88
2022-10-02T07:20:35.917Z,48.96
2022-10-02T07:21:13.207Z,48.79
2022-10-02T07:21:51.261Z,48.83
2022-10-02T07:22:46.196Z,48.67
2022-10-02T07:23:37.393Z,49.16
2022-10-02T07:24:22.748Z,48.91
2022-10-02T07:25:13.097Z,48.70
2022-10-02T07:25:58.692Z,48.88
2022-10-02T07:26:40.429Z,48.76
2022-10-02T07:27:16.127Z,48.74
2022-10-02T07:27:54.398Z,48.71
2022-10-02T07:28:35.487Z,49.13
2022-10-02T07:29:20.714Z,48.85
2022-10-02T07:30:01.602Z,48.72
2022-10-02T07:30:40.821Z,49.14
2022-10-02T07:31:18.984Z,48.72
2022-10-02T07:32:04.354Z,48.93
2022-10-02T07:32:47.543Z,48.99
2022-10-02T07:33:30.128Z,48.97
2022-10-02T07:34:16.648Z,48.81
2022-10-02T07:34:59.185Z,48.90
2022-10-02T07:35:46.983Z,48.75
2022-10-02T07:36:29.198Z,48.67
2022-10-02T07:37:09.184Z,48.81
2022-10-02T07:37:50.553Z,49.08
2022-10-02T07:38:44.019Z,48.74
2022-10-02T07:39:35.391Z,48.69
2022-10-02T07:40:21.629Z,48.96
2022-10-02T07:41:15.645Z,48.98
2022-10-02T07:42:12.240Z,48.81
2022-10-02T07:42:58.513Z,48.92
2022-10-02T07:43:40.411Z,49.11
2022-10-02T07:44:37.383Z,48.66
2022-10-02T07:45:42.327Z,49.08
2022-10-02T07:46:18.521Z,49.01
2022-10-02T07:47:00.536Z,49.01
2022-10-02T07:47:55.675Z,48.99
2022-10-02T07:48:48.487Z,48.93
2022-10-02T07:49:33.141Z,49.13
2022-10-02T07:50:12.435Z,48.89
2022-10-02T07:51:00.976Z,49.03
2022-10-02T07:51:48.623Z,48.76
2022-10-02T07:52:29.856Z,48.84
2022-10-02T07:53:11.108Z,49.12
2022-10-02T07:53:48.911Z,48.85
2022-10-02T07:54:47.909Z,48.93
2022-10-02T07:55:23.316Z,48.83
2022-10-02T07:55:56.773Z,49.14
2022-10-02T07:56:29.156Z,48.93
2022-10-02T07:57:20.867Z,48.77
2022-10-02T07:57:59.852Z,48.89
2022-10-02T07:58:40.176Z,48.76
2022-10-02T07:59:16.271Z,49.13
2022-10-02T07:59:49.357Z,48.98
2022-10-02T08:00:27.151Z,49.00
2022-10-02T08:01:06.389Z,49.24
2022-10-02T08:01:40.968Z,48.99
2022-10-02T08:02:21.954Z,48.91
2022-10-02T08:02:58.159Z,49.16
2022-10-02T08:03:37.991Z,49.00
2022-10-02T08:04:12.123Z,49.26
2022-10-02T08:04:44.392Z,48.98
2022-10-02T08:05:23.448Z,49.12
2022-10-02T08:05:56.642Z,49.14
2022-10-02T08:06:29.377Z,48.81
2022-10-02T08:07:05.488Z,49.22
2022-10-02T08:07:37.755Z,49.20
2022-10-02T08:08:15.476Z,49.40
2022-10-02T08:08:54.419Z,49.23
2022-10-02T08:09:31.255Z,49.09
2022-10-02T08:10:09.512Z,49.17
2022-10-02T08:10:45.467Z,49.09
2022-10-02T08:11:24.159Z,49.29
2022-10-02T08:11:59.284Z,49.10
2022-10-02T08:12:36.784Z,49.12
2022-10-02T08:13:20.652Z,49.53
2022-10-02T08:13:57.972Z,49.63
2022-10-02T08:14:36.583Z,49.72
2022-10-02T08:15:18.001Z,49.70
2022-10-02T08:15:53.573Z,49.69
2022-10-02T08:16:35.509Z,49.66
2022-10-02T08:17:15.649Z,49.36
2022-10-02T08:17:50.584Z,49.60
2022-10-02T08:18:34.715Z,49.60
2022-10-02T08:19:09.220Z,49.41
2022-10-02T08:19:46.043Z,49.69
2022-10-02T08:20:29.238Z,49.45
2022-10-02T08:21:02.736Z,49.25
2022-10-02T08:21:44.210Z,49.27
2022-10-02T08:22:22.611Z,49.52
2022-10-02T08:23:01.194Z,49.70
2022-10-02T08:23:38.393Z,49.70
2022-10-02T08:24:16.680Z,49.49
2022-10-02T08:24:52.891Z,49.48
2022-10-02T08:25:26.781Z,49.67
2022-10-02T08:26:05.629Z,49.57
2022-10-02T08:26:43.006Z,49.41
2022-10-02T08:27:20.086Z,49.39
2022-10-02T08:27:56.669Z,49.27
2022-10-02T08:28:34.631Z,49.39
2022-10-02T08:29:12.015Z,49.53
2022-10-02T08:29:47.704Z,49.60
2022-10-02T08:30:22.518Z,49.25
2022-10-02T08:30:54.699Z,49.70
2022-10-02T08:31:32.917Z,49.58
2022-10-02T08:32:09.836Z,49.35
2022-10-02T08:32:42.241Z,49.72
2022-10-02T08:33:17.765Z,49.72
2022-10-02T08:33:50.069Z,49.75